createdAt,value
2022-11-02T00:02:11.904Z,99303.52
2022-11-02T00:05:23.971Z,99304.36
2022-11-02T00:08:30.102Z,99308.45
2022-11-02T00:11:37.551Z,99306.64
2022-11-02T00:14:43.749Z,99303.77
2022-11-02T00:17:52.463Z,99304.12
2022-11-02T00:20:58.910Z,99301.77
2022-11-02T00:24:07.198Z,99306.59
2022-11-02T00:27:13.692Z,99306.51
2022-11-02T00:30:19.894Z,99306.36
2022-11-02T00:33:25.950Z,99305.92
2022-11-02T00:36:32.135Z,99305.33
2022-11-02T00:39:38.173Z,99302.13
2022-11-02T00:42:44.255Z,99302.63
2022-11-02T00:45:50.285Z,99302.13
2022-11-02T00:48:56.460Z,99301.30
2022-11-02T00:52:03.389Z,99296.78
2022-11-02T00:55:09.277Z,99298.39
2022-11-02T00:58:13.793Z,99299.07
2022-11-02T01:01:19.972Z,99296.92
2022-11-02T01:04:24.846Z,99290.73
2022-11-02T01:07:32.087Z,99283.90
2022-11-02T01:10:39.045Z,99281.02
2022-11-02T01:13:47.219Z,99286.75
2022-11-02T01:16:53.291Z,99290.02
2022-11-02T01:19:59.418Z,99291.79
2022-11-02T01:23:05.577Z,99292.38
2022-11-02T01:26:12.803Z,99290.64
2022-11-02T01:29:19.418Z,99286.29
2022-11-02T01:32:25.544Z,99281.27
2022-11-02T01:35:31.580Z,99280.20
2022-11-02T01:38:37.610Z,99279.81
2022-11-02T01:41:43.917Z,99278.79
2022-11-02T01:44:48.714Z,99277.71
2022-11-02T01:47:54.952Z,99277.56
2022-11-02T01:51:04.097Z,99281.95
2022-11-02T01:54:14.171Z,99285.33
2022-11-02T01:57:23.276Z,99283.81
2022-11-02T02:00:29.422Z,99287.59
2022-11-02T02:03:37.282Z,99292.92
2022-11-02T02:06:45.247Z,99293.04
2022-11-02T02:09:51.705Z,99294.09
2022-11-02T02:12:57.983Z,99297.17
2022-11-02T02:16:06.793Z,99301.39
2022-11-02T02:19:25.162Z,99303.04
2022-11-02T02:22:57.805Z,99298.52
2022-11-02T02:26:39.644Z,99298.14
2022-11-02T02:30:02.095Z,99303.16
2022-11-02T02:33:13.783Z,99309.15
2022-11-02T02:36:26.221Z,99309.52
2022-11-02T02:39:37.797Z,99313.80
2022-11-02T02:42:50.314Z,99319.70
2022-11-02T02:46:01.712Z,99324.27
2022-11-02T02:49:09.926Z,99323.18
2022-11-02T02:52:19.556Z,99320.01
2022-11-02T02:55:30.934Z,99315.20
2022-11-02T02:58:43.771Z,99321.06
2022-11-02T03:01:51.390Z,99323.55
2022-11-02T03:04:57.591Z,99325.13
2022-11-02T03:08:09.075Z,99326.59
2022-11-02T03:11:18.413Z,99325.98
2022-11-02T03:14:38.769Z,99326.49
2022-11-02T03:18:04.281Z,99324.59
2022-11-02T03:21:23.646Z,99327.10
2022-11-02T03:24:37.985Z,99334.06
2022-11-02T03:27:54.762Z,99334.75
2022-11-02T03:31:08.329Z,99339.36
2022-11-02T03:34:24.434Z,99339.17
2022-11-02T03:37:31.033Z,99338.71
2022-11-02T03:40:41.686Z,99342.27
2022-11-02T03:43:50.335Z,99340.48
2022-11-02T03:47:00.898Z,99340.56
2022-11-02T03:50:10.509Z,99343.59
2022-11-02T03:53:24.049Z,99344.45
2022-11-02T03:56:35.130Z,99346.46
2022-11-02T03:59:41.609Z,99343.58
2022-11-02T04:02:50.481Z,99342.17
2022-11-02T04:05:56.788Z,99348.98
2022-11-02T04:09:03.181Z,99349.71
2022-11-02T04:12:27.235Z,99348.61
2022-11-02T04:15:33.373Z,99349.23
2022-11-02T04:18:56.971Z,99350.00
2022-11-02T04:22:20.748Z,99348.19
2022-11-02T04:25:27.017Z,99348.30
2022-11-02T04:28:31.764Z,99352.14
2022-11-02T04:31:37.903Z,99350.16
2022-11-02T04:34:43.842Z,99352.59
2022-11-02T04:38:07.891Z,99355.85
2022-11-02T04:41:33.878Z,99356.71
2022-11-02T04:44:40.106Z,99354.55
2022-11-02T04:47:46.219Z,99358.56
2022-11-02T04:50:52.344Z,99361.79
2022-11-02T04:53:59.252Z,99362.52
2022-11-02T04:57:05.493Z,99365.86
2022-11-02T05:00:11.201Z,99368.43
2022-11-02T05:03:17.382Z,99367.27
2022-11-02T05:06:24.584Z,99367.98
2022-11-02T05:09:30.636Z,99373.13
2022-11-02T05:12:36.850Z,99374.60
2022-11-02T05:15:43.320Z,99374.38
2022-11-02T05:18:49.553Z,99377.73
2022-11-02T05:21:55.632Z,99383.45
2022-11-02T05:25:01.693Z,99391.26
2022-11-02T05:28:08.177Z,99393.89
2022-11-02T05:31:14.429Z,99391.83
2022-11-02T05:34:20.575Z,99390.28
2022-11-02T05:37:26.664Z,99393.95
2022-11-02T05:40:33.875Z,99398.86
2022-11-02T05:43:40.096Z,99400.80
2022-11-02T05:46:47.414Z,99407.23
2022-11-02T05:49:53.561Z,99405.95
2022-11-02T05:52:59.694Z,99406.39
2022-11-02T05:56:08.019Z,99403.38
2022-11-02T05:59:14.341Z,99402.59
2022-11-02T06:02:21.934Z,99404.16
2022-11-02T06:05:30.021Z,99411.08
2022-11-02T06:08:37.303Z,99414.21
2022-11-02T06:11:43.351Z,99419.48
2022-11-02T06:14:49.383Z,99417.89
2022-11-02T06:17:55.581Z,99421.81
2022-11-02T06:21:01.935Z,99418.78
2022-11-02T06:24:06.621Z,99420.89
2022-11-02T06:27:12.745Z,99421.14
2022-11-02T06:30:19.142Z,99423.52
2022-11-02T06:33:25.410Z,99424.35
2022-11-02T06:36:31.662Z,99425.64
2022-11-02T06:43:03.293Z,99425.41
2022-11-02T06:46:09.752Z,99429.55
2022-11-02T06:49:15.856Z,99433.30
2022-11-02T06:52:21.809Z,99425.97
2022-11-02T06:55:28.003Z,99422.44
2022-11-02T06:58:34.123Z,99424.88
2022-11-02T07:01:40.264Z,99424.02
2022-11-02T07:04:44.877Z,99426.48
2022-11-02T07:07:53.747Z,99432.52
2022-11-02T07:11:00.102Z,99431.82
2022-11-02T07:14:04.590Z,99431.46
2022-11-02T07:17:10.759Z,99428.44
2022-11-02T07:20:17.426Z,99421.89
2022-11-02T07:23:24.280Z,99417.30
2022-11-02T07:26:30.813Z,99418.08
2022-11-02T07:29:36.823Z,99421.20
2022-11-02T07:32:47.038Z,99424.23
2022-11-02T07:35:53.101Z,99421.78
2022-11-02T07:38:59.123Z,99424.48
2022-11-02T07:42:07.235Z,99423.48
2022-11-02T07:45:14.069Z,99419.21
2022-11-02T07:48:20.281Z,99420.90
2022-11-02T07:51:26.901Z,99416.09
2022-11-02T07:54:32.989Z,99419.99
2022-11-02T07:57:39.002Z,99423.63
2022-11-02T08:00:45.329Z,99423.89
2022-11-02T08:03:49.782Z,99420.39
2022-11-02T08:06:56.087Z,99419.91
2022-11-02T08:10:00.646Z,99422.50
2022-11-02T08:13:07.036Z,99419.44
2022-11-02T08:16:13.146Z,99420.43
2022-11-02T08:19:19.270Z,99420.14
2022-11-02T08:22:25.361Z,99423.17
2022-11-02T08:25:31.699Z,99422.82
2022-11-02T08:28:40.219Z,99422.90
2022-11-02T08:31:46.338Z,99421.84
2022-11-02T08:34:52.369Z,99418.44
2022-11-02T08:38:00.075Z,99416.02
2022-11-02T08:41:06.596Z,99413.65
2022-11-02T08:44:12.709Z,99411.35
2022-11-02T08:47:19.289Z,99413.88
2022-11-02T08:50:26.508Z,99415.10
2022-11-02T08:53:32.981Z,99419.18
2022-11-02T08:56:39.098Z,99411.73
2022-11-02T08:59:43.597Z,99410.02
2022-11-02T09:03:01.711Z,99408.52
2022-11-02T09:06:08.386Z,99398.17
2022-11-02T09:09:14.722Z,99393.27
2022-11-02T09:12:20.686Z,99389.40
2022-11-02T09:15:26.790Z,99386.85
2022-11-02T09:18:33.344Z,99388.23
2022-11-02T09:21:40.087Z,99391.09
2022-11-02T09:24:46.157Z,99394.10
2022-11-02T09:27:55.862Z,99389.23
2022-11-02T09:31:03.826Z,99390.41
2022-11-02T09:34:12.308Z,99389.41
2022-11-02T09:37:16.953Z,99387.50
2022-11-02T09:40:25.210Z,99387.44
2022-11-02T09:43:42.012Z,99385.65
2022-11-02T09:47:09.260Z,99386.84
2022-11-02T09:50:19.967Z,99382.16
2022-11-02T09:53:35.216Z,99381.95
2022-11-02T09:56:41.997Z,99377.19
2022-11-02T09:59:48.317Z,99375.63
2022-11-02T10:03:03.282Z,99376.13
2022-11-02T10:06:15.851Z,99379.91
2022-11-02T10:09:30.815Z,99380.17
2022-11-02T10:12:44.056Z,99384.03
2022-11-02T10:15:54.450Z,99381.25
2022-11-02T10:19:00.982Z,99378.35
2022-11-02T10:22:09.956Z,99378.50
2022-11-02T10:25:19.055Z,99377.91
2022-11-02T10:28:32.682Z,99372.77
2022-11-02T10:31:39.291Z,99372.55
2022-11-02T10:34:58.728Z,99372.80
2022-11-02T10:38:26.203Z,99372.44
2022-11-02T10:41:50.907Z,99368.74
2022-11-02T10:45:15.092Z,99371.08
2022-11-02T10:48:30.577Z,99365.50
2022-11-02T10:51:36.879Z,99362.21
2022-11-02T10:54:43.382Z,99367.89
2022-11-02T10:57:50.575Z,99360.33
2022-11-02T11:01:08.180Z,99360.54
2022-11-02T11:04:25.746Z,99357.66
2022-11-02T11:07:32.351Z,99358.91
2022-11-02T11:10:44.327Z,99352.73
2022-11-02T11:20:58.958Z,99353.34
2022-11-02T11:24:25.435Z,99348.83
2022-11-02T11:27:31.554Z,99351.10
2022-11-02T11:34:04.184Z,99345.85
2022-11-02T11:37:13.902Z,99340.98
2022-11-02T11:40:22.610Z,99339.54
2022-11-02T11:43:31.920Z,99338.06
2022-11-02T11:46:46.964Z,99341.42
2022-11-02T11:50:12.940Z,99334.45
2022-11-02T11:53:23.488Z,99326.62
2022-11-02T11:56:29.985Z,99324.32
2022-11-02T11:59:49.199Z,99321.75
2022-11-02T12:03:06.991Z,99319.70
2022-11-02T12:06:22.806Z,99331.79
2022-11-02T12:09:35.422Z,99326.38
2022-11-02T12:13:00.525Z,99325.33
2022-11-02T12:16:16.194Z,99320.25
2022-11-02T12:19:34.092Z,99316.30
2022-11-02T12:22:51.456Z,99315.19
2022-11-02T12:26:06.345Z,99310.75
2022-11-02T12:29:32.872Z,99309.69
2022-11-02T12:32:50.670Z,99308.41
2022-11-02T12:36:25.142Z,99307.88
2022-11-02T12:39:41.945Z,99309.75
2022-11-02T12:42:57.348Z,99314.49
2022-11-02T12:46:08.825Z,99314.77
2022-11-02T12:49:31.221Z,99314.44
2022-11-02T12:52:51.860Z,99320.10
2022-11-02T12:56:02.044Z,99320.64
2022-11-02T12:59:14.402Z,99318.34
2022-11-02T13:02:26.633Z,99321.57
2022-11-02T13:05:39.149Z,99326.23
2022-11-02T13:08:51.266Z,99323.51
2022-11-02T13:12:04.802Z,99321.54
2022-11-02T13:15:19.000Z,99320.95
2022-11-02T13:18:31.553Z,99324.19
2022-11-02T13:21:44.319Z,99323.86
2022-11-02T13:24:54.633Z,99326.29
2022-11-02T13:28:05.843Z,99323.24
2022-11-02T13:31:17.842Z,99323.92
2022-11-02T13:34:33.967Z,99322.98
2022-11-02T13:37:44.894Z,99328.40
2022-11-02T13:40:58.750Z,99332.70
2022-11-02T13:44:22.730Z,99328.40
2022-11-02T13:47:52.039Z,99328.16
2022-11-02T13:51:01.364Z,99328.30
2022-11-02T13:54:14.016Z,99327.33
2022-11-02T13:57:34.609Z,99325.13
2022-11-02T14:00:45.604Z,99324.54
2022-11-02T14:04:01.454Z,99323.48
2022-11-02T14:07:10.632Z,99320.92
2022-11-02T14:10:19.982Z,99322.36
2022-11-02T14:14:17.059Z,99324.71
2022-11-02T14:17:23.208Z,99324.67
2022-11-02T14:20:37.157Z,99321.95
2022-11-02T14:23:43.696Z,99320.95
2022-11-02T14:26:59.298Z,99322.45
2022-11-02T14:30:05.780Z,99320.11
2022-11-02T14:33:18.784Z,99317.86
2022-11-02T14:36:40.589Z,99322.30
2022-11-02T14:39:54.414Z,99321.21
2022-11-02T14:43:22.566Z,99320.67
2022-11-02T14:46:48.622Z,99315.88
2022-11-02T14:49:57.506Z,99324.73
2022-11-02T14:53:09.139Z,99328.53
2022-11-02T14:56:15.950Z,99328.02
2022-11-02T14:59:26.697Z,99330.85
2022-11-02T15:02:38.640Z,99333.35
2022-11-02T15:05:48.648Z,99337.61
2022-11-02T15:08:57.170Z,99342.60
2022-11-02T15:12:22.601Z,99345.12
2022-11-02T15:15:36.428Z,99348.52
2022-11-02T15:18:42.817Z,99353.52
2022-11-02T15:21:50.494Z,99358.45
2022-11-02T15:24:58.777Z,99359.86
2022-11-02T15:28:13.291Z,99361.48
2022-11-02T15:31:25.875Z,99365.67
2022-11-02T15:34:38.214Z,99367.54
2022-11-02T15:38:11.281Z,99366.74
2022-11-02T15:41:25.434Z,99366.09
2022-11-02T15:45:14.298Z,99371.16
2022-11-02T15:48:41.278Z,99370.88
2022-11-02T15:51:55.385Z,99372.55
2022-11-02T15:55:12.755Z,99375.06
2022-11-02T15:58:33.636Z,99376.23
2022-11-02T16:01:41.081Z,99380.17
2022-11-02T16:04:51.594Z,99382.50
2022-11-02T16:08:20.784Z,99387.97
2022-11-02T16:11:25.926Z,99393.55
2022-11-02T16:14:34.222Z,99399.21
2022-11-02T16:17:40.643Z,99395.75
2022-11-02T16:20:48.234Z,99399.63
2022-11-02T16:23:59.530Z,99406.32
2022-11-02T16:27:10.585Z,99405.77
2022-11-02T16:30:24.581Z,99407.23
2022-11-02T16:33:32.963Z,99412.98
2022-11-02T16:36:40.622Z,99419.55
2022-11-02T16:39:49.143Z,99418.30
2022-11-02T16:42:56.150Z,99419.04
2022-11-02T16:46:05.088Z,99420.73
2022-11-02T16:49:19.786Z,99431.59
2022-11-02T16:52:29.192Z,99432.10
2022-11-02T16:55:44.468Z,99434.94
2022-11-02T16:59:00.009Z,99436.15
2022-11-02T17:02:13.341Z,99440.88
2022-11-02T17:05:22.065Z,99445.44
2022-11-02T17:08:34.430Z,99448.02
2022-11-02T17:11:44.813Z,99450.33
2022-11-02T17:14:52.118Z,99450.14
2022-11-02T17:18:25.159Z,99451.63
2022-11-02T17:21:32.441Z,99449.18
2022-11-02T17:24:39.086Z,99453.51
2022-11-02T17:27:45.274Z,99455.17
2022-11-02T17:30:50.132Z,99460.14
2022-11-02T17:33:58.142Z,99464.20
2022-11-02T17:37:04.514Z,99466.64
2022-11-02T17:40:14.145Z,99468.11
2022-11-02T17:43:20.616Z,99462.61
2022-11-02T17:46:26.846Z,99463.64
2022-11-02T17:49:32.915Z,99468.79
2022-11-02T17:52:39.845Z,99472.31
2022-11-02T17:55:45.953Z,99470.35
2022-11-02T17:58:50.431Z,99471.55
2022-11-02T18:01:56.640Z,99474.66
2022-11-02T18:05:02.808Z,99477.04
2022-11-02T18:08:09.121Z,99483.39
2022-11-02T18:11:15.331Z,99484.84
2022-11-02T18:14:21.498Z,99486.84
2022-11-02T18:17:31.091Z,99493.70
2022-11-02T18:20:42.311Z,99498.13
2022-11-02T18:23:48.732Z,99499.77
2022-11-02T18:26:55.662Z,99500.09
2022-11-02T18:30:01.863Z,99498.94
2022-11-02T18:33:10.753Z,99495.13
2022-11-02T18:36:19.745Z,99502.55
2022-11-02T18:39:26.003Z,99510.99
2022-11-02T18:42:32.804Z,99509.11
2022-11-02T18:45:38.901Z,99510.30
2022-11-02T18:48:45.067Z,99512.06
2022-11-02T18:51:49.453Z,99512.35
2022-11-02T18:54:56.116Z,99511.36
2022-11-02T18:58:02.613Z,99511.71
2022-11-02T19:01:14.355Z,99517.70
2022-11-02T19:04:20.619Z,99521.46
2022-11-02T19:07:42.601Z,99523.98
2022-11-02T19:10:49.651Z,99525.69
2022-11-02T19:13:55.856Z,99523.53
2022-11-02T19:17:00.353Z,99533.80
2022-11-02T19:20:07.551Z,99535.66
2022-11-02T19:23:13.700Z,99531.47
2022-11-02T19:26:18.277Z,99537.88
2022-11-02T19:29:24.474Z,99541.07
2022-11-02T19:32:29.026Z,99545.29
2022-11-02T19:35:35.810Z,99544.27
2022-11-02T19:38:42.373Z,99556.23
2022-11-02T19:41:52.422Z,99557.82
2022-11-02T19:44:58.558Z,99563.23
2022-11-02T19:48:04.628Z,99568.19
2022-11-02T19:51:15.817Z,99565.38
2022-11-02T19:54:25.623Z,99567.01
2022-11-02T19:57:33.394Z,99567.13
2022-11-02T20:00:39.718Z,99560.29
2022-11-02T20:03:44.687Z,99564.04
2022-11-02T20:06:50.848Z,99558.65
2022-11-02T20:09:58.688Z,99568.27
2022-11-02T20:13:05.887Z,99576.77
2022-11-02T20:16:13.783Z,99583.01
2022-11-02T20:19:19.852Z,99584.31
2022-11-02T20:22:26.026Z,99583.81
2022-11-02T20:25:30.515Z,99585.75
2022-11-02T20:28:40.038Z,99593.52
2022-11-02T20:31:46.211Z,99593.96
2022-11-02T20:34:50.832Z,99593.08
2022-11-02T20:37:58.000Z,99596.42
2022-11-02T20:41:12.595Z,99587.55
2022-11-02T20:44:20.992Z,99583.77
2022-11-02T20:47:27.401Z,99583.75
2022-11-02T20:50:33.888Z,99582.51
2022-11-02T20:53:40.270Z,99584.67
2022-11-02T20:56:46.448Z,99597.52
2022-11-02T20:59:50.929Z,99599.42
2022-11-02T21:02:57.129Z,99599.63
2022-11-02T21:06:03.238Z,99599.22
2022-11-02T21:09:12.097Z,99598.32
2022-11-02T21:12:36.946Z,99592.92
2022-11-02T21:15:43.190Z,99596.26
2022-11-02T21:18:49.499Z,99597.29
2022-11-02T21:21:59.747Z,99596.34
2022-11-02T21:25:07.366Z,99595.42
2022-11-02T21:28:13.563Z,99591.99
2022-11-02T21:31:19.456Z,99596.02
2022-11-02T21:34:25.610Z,99593.96
2022-11-02T21:37:30.337Z,99590.25
2022-11-02T21:40:36.392Z,99596.73
2022-11-02T21:43:42.391Z,99588.17
2022-11-02T21:46:48.525Z,99588.89
2022-11-02T21:49:53.038Z,99589.27
2022-11-02T21:52:59.551Z,99590.40
2022-11-02T21:56:07.850Z,99589.45
2022-11-02T21:59:13.971Z,99587.80
2022-11-02T22:02:19.129Z,99588.67
2022-11-02T22:05:39.141Z,99590.33
2022-11-02T22:08:45.818Z,99587.59
2022-11-02T22:12:14.406Z,99590.21
2022-11-02T22:15:20.538Z,99592.80
2022-11-02T22:18:25.016Z,99598.31
2022-11-02T22:21:32.417Z,99605.77
2022-11-02T22:24:42.138Z,99609.05
2022-11-02T22:27:50.839Z,99614.23
2022-11-02T22:30:55.288Z,99612.67
2022-11-02T22:34:04.954Z,99614.11
2022-11-02T22:37:28.708Z,99615.70
2022-11-02T22:40:34.834Z,99621.97
2022-11-02T22:43:39.393Z,99619.73
2022-11-02T22:46:47.258Z,99611.16
2022-11-02T22:49:53.251Z,99610.30
2022-11-02T22:52:59.398Z,99610.10
2022-11-02T22:56:07.687Z,99607.56
2022-11-02T22:59:14.037Z,99610.55
2022-11-02T23:02:20.183Z,99609.42
2022-11-02T23:05:24.693Z,99613.21
2022-11-02T23:08:31.698Z,99613.61
2022-11-02T23:11:38.878Z,99618.52
2022-11-02T23:14:44.950Z,99622.07
2022-11-02T23:17:52.590Z,99621.71
2022-11-02T23:20:58.660Z,99619.96
2022-11-02T23:24:23.177Z,99621.67
2022-11-02T23:27:29.806Z,99621.04
2022-11-02T23:30:55.487Z,99623.33
2022-11-02T23:34:00.006Z,99625.45
2022-11-02T23:37:08.042Z,99624.23
2022-11-02T23:40:16.332Z,99628.77
2022-11-02T23:43:22.466Z,99633.90
2022-11-02T23:46:27.011Z,99633.13
2022-11-02T23:49:33.068Z,99631.94
2022-11-02T23:52:57.565Z,99633.69
2022-11-02T23:56:22.266Z,99634.05
2022-11-02T23:59:29.258Z,99632.23
